Bente — PBTG — position and weather

sailwx.info

Track history (hours):
 
Tides and Currents Weather Stations Pressure Air Temp Water Temp Dewpoint Dewpoint Depression Visibility Wind Speed Wind Dir Waves Ship Positions

Bente

Last reported at 2018-Feb-13 05:05 UTC. Time now 2018-Feb-21 14:49 UTC.
Position N 36°06' W 005°09'.
Warning: this ship's position is 8 days out of date.

Length 90 m; draft 6 m.

Type: Ship. MMSI: 245870000.

Date/timePositionNaut miles runAvg speedWind from/ knotsBaromVisibWave heightAir tempDewpointWater temp
2018-Feb-13 05:05N 36°06' W 005°09'110.2
2018-Feb-13 05:00N 36°05' W 005°10'510.2
2018-Feb-13 04:30N 36°02' W 005°15'611.3
2018-Feb-13 04:00N 35°59' W 005°21'611.4
2018-Feb-13 03:30N 35°58' W 005°27'263 8.9
2018-Feb-11 21:53N 38°24' W 010°02'410.4
2018-Feb-11 21:30N 38°28' W 010°03'510.1
2018-Feb-11 21:00N 38°32' W 010°05'1010.2
2018-Feb-11 20:03N 38°42' W 010°07'110.6
2018-Feb-11 19:55N 38°43' W 010°07'410.7
2018-Feb-11 19:30N 38°48' W 010°07'510.5
2018-Feb-11 19:00N 38°53' W 010°07'510.2
2018-Feb-11 18:30N 38°58' W 010°07'510.1
2018-Feb-11 18:00N 39°03' W 010°07'510.0
2018-Feb-11 17:30N 39°08' W 010°07'510.1
2018-Feb-11 17:00N 39°13' W 010°07'510.0
2018-Feb-11 16:30N 39°18' W 010°07'5 9.9
2018-Feb-11 15:57N 39°24' W 010°07'  
2018-Feb-08 01:30N 50°12' W 001°51'3 6.9
2018-Feb-08 01:00N 50°13' W 001°46'4 6.9
2018-Feb-08 00:28N 50°14' W 001°41'3 7.1
2018-Feb-08 00:00N 50°14' W 001°36'4 7.5
2018-Feb-07 23:30N 50°16' W 001°30'4 8.0
2018-Feb-07 23:00N 50°17' W 001°24'133 9.8
2018-Feb-07 09:30N 51°14' E 001°45'5 9.8
2018-Feb-07 09:00N 51°18' E 001°48'5 9.2
2018-Feb-07 08:30N 51°22' E 001°51'4 8.8
2018-Feb-07 08:00N 51°26' E 001°54'4 8.4
2018-Feb-07 07:30N 51°30' E 001°58'4 8.0
2018-Feb-07 07:00N 51°32' E 002°03'4 7.7
2018-Feb-07 06:30N 51°35' E 002°07'3 6.0
2018-Feb-07 06:00N 51°38' E 002°10'4 7.6
2018-Feb-07 05:30N 51°40' E 002°14'5 8.4
2018-Feb-07 04:52N 51°44' E 002°20'3 9.0
2018-Feb-07 04:29N 51°47' E 002°24'7810.0
2018-Feb-06 20:42N 52°47' E 003°44'2 8.3
2018-Feb-06 20:30N 52°49' E 003°45'4 8.2
2018-Feb-06 19:59N 52°52' E 003°50'4 8.1
2018-Feb-06 19:28N 52°55' E 003°54'4 8.3
2018-Feb-06 18:58N 52°58' E 003°59'359 9.5
2018-Feb-05 05:03N 57°46' E 010°17'110.5
2018-Feb-05 04:57N 57°46' E 010°19'510.1
2018-Feb-05 04:30N 57°48' E 010°27'510.0
2018-Feb-05 04:00N 57°50' E 010°36'5 9.2
2018-Feb-05 03:30N 57°51' E 010°44'4 8.9
2018-Feb-05 03:00N 57°51' E 010°52'5 8.9
2018-Feb-05 02:30N 57°51' E 011°01'5 9.1
2018-Feb-05 02:00N 57°51' E 011°09'4 9.1
2018-Feb-05 01:30N 57°51' E 011°18'4 8.8
2018-Feb-05 01:00N 57°51' E 011°26'5 9.0
2018-Feb-05 00:30N 57°54' E 011°33'4 8.2
2018-Feb-05 00:00N 57°56' E 011°40'5 9.1
2018-Feb-04 23:30N 57°59' E 011°45'4 8.4
2018-Feb-04 23:00N 58°03' E 011°47'4 8.5
2018-Feb-04 22:30N 58°07' E 011°50'5 9.1
2018-Feb-04 22:00N 58°12' E 011°51'6 9.0
2018-Feb-04 21:22N 58°17' E 011°48'  
Track history (hours):
 
Tides and Currents Weather Stations Pressure Air Temp Water Temp Dewpoint Dewpoint Depression Visibility Wind Speed Wind Dir Waves Ship Positions

Bente

Last reported at 2018-Feb-13 05:05 UTC. Time now 2018-Feb-21 14:49 UTC.
Position N 36°06' W 005°09'.
Warning: this ship's position is 8 days out of date.

Length 90 m; draft 6 m.

Type: Ship. MMSI: 245870000.

Date/timePositionNaut miles runAvg speedWind from/ knotsBaromVisibWave heightAir tempDewpointWater temp
2018-Feb-13 05:05N 36°06' W 005°09'110.2
2018-Feb-13 05:00N 36°05' W 005°10'510.2
2018-Feb-13 04:30N 36°02' W 005°15'611.3
2018-Feb-13 04:00N 35°59' W 005°21'611.4
2018-Feb-13 03:30N 35°58' W 005°27'263 8.9
2018-Feb-11 21:53N 38°24' W 010°02'410.4
2018-Feb-11 21:30N 38°28' W 010°03'510.1
2018-Feb-11 21:00N 38°32' W 010°05'1010.2
2018-Feb-11 20:03N 38°42' W 010°07'110.6
2018-Feb-11 19:55N 38°43' W 010°07'410.7
2018-Feb-11 19:30N 38°48' W 010°07'510.5
2018-Feb-11 19:00N 38°53' W 010°07'510.2
2018-Feb-11 18:30N 38°58' W 010°07'510.1
2018-Feb-11 18:00N 39°03' W 010°07'510.0
2018-Feb-11 17:30N 39°08' W 010°07'510.1
2018-Feb-11 17:00N 39°13' W 010°07'510.0
2018-Feb-11 16:30N 39°18' W 010°07'5 9.9
2018-Feb-11 15:57N 39°24' W 010°07'  
2018-Feb-08 01:30N 50°12' W 001°51'3 6.9
2018-Feb-08 01:00N 50°13' W 001°46'4 6.9
2018-Feb-08 00:28N 50°14' W 001°41'3 7.1
2018-Feb-08 00:00N 50°14' W 001°36'4 7.5
2018-Feb-07 23:30N 50°16' W 001°30'4 8.0
2018-Feb-07 23:00N 50°17' W 001°24'133 9.8
2018-Feb-07 09:30N 51°14' E 001°45'5 9.8
2018-Feb-07 09:00N 51°18' E 001°48'5 9.2
2018-Feb-07 08:30N 51°22' E 001°51'4 8.8
2018-Feb-07 08:00N 51°26' E 001°54'4 8.4
2018-Feb-07 07:30N 51°30' E 001°58'4 8.0
2018-Feb-07 07:00N 51°32' E 002°03'4 7.7
2018-Feb-07 06:30N 51°35' E 002°07'3 6.0
2018-Feb-07 06:00N 51°38' E 002°10'4 7.6
2018-Feb-07 05:30N 51°40' E 002°14'5 8.4
2018-Feb-07 04:52N 51°44' E 002°20'3 9.0
2018-Feb-07 04:29N 51°47' E 002°24'7810.0
2018-Feb-06 20:42N 52°47' E 003°44'2 8.3
2018-Feb-06 20:30N 52°49' E 003°45'4 8.2
2018-Feb-06 19:59N 52°52' E 003°50'4 8.1
2018-Feb-06 19:28N 52°55' E 003°54'4 8.3
2018-Feb-06 18:58N 52°58' E 003°59'359 9.5
2018-Feb-05 05:03N 57°46' E 010°17'110.5
2018-Feb-05 04:57N 57°46' E 010°19'510.1
2018-Feb-05 04:30N 57°48' E 010°27'510.0
2018-Feb-05 04:00N 57°50' E 010°36'5 9.2
2018-Feb-05 03:30N 57°51' E 010°44'4 8.9
2018-Feb-05 03:00N 57°51' E 010°52'5 8.9
2018-Feb-05 02:30N 57°51' E 011°01'5 9.1
2018-Feb-05 02:00N 57°51' E 011°09'4 9.1
2018-Feb-05 01:30N 57°51' E 011°18'4 8.8
2018-Feb-05 01:00N 57°51' E 011°26'5 9.0
2018-Feb-05 00:30N 57°54' E 011°33'4 8.2
2018-Feb-05 00:00N 57°56' E 011°40'5 9.1
2018-Feb-04 23:30N 57°59' E 011°45'4 8.4
2018-Feb-04 23:00N 58°03' E 011°47'4 8.5
2018-Feb-04 22:30N 58°07' E 011°50'5 9.1
2018-Feb-04 22:00N 58°12' E 011°51'6 9.0
2018-Feb-04 21:22N 58°17' E 011°48'  

Dump ship's entire track history